createdAt,value
2019-05-07T00:00:08.810Z,8.55
2019-05-07T00:02:42.812Z,9.03
2019-05-07T00:05:15.815Z,7.72
2019-05-07T00:07:49.365Z,8.53
2019-05-07T00:10:21.809Z,9.28
2019-05-07T00:12:55.177Z,10.55
2019-05-07T00:15:27.175Z,12.95
2019-05-07T00:17:59.346Z,13.15
2019-05-07T00:20:32.713Z,11.05
2019-05-07T00:23:05.226Z,11.20
2019-05-07T00:25:37.242Z,10.38
2019-05-07T00:28:09.416Z,11.00
2019-05-07T00:30:42.483Z,9.58
2019-05-07T00:33:14.823Z,9.70
2019-05-07T00:35:48.035Z,8.73
2019-05-07T00:38:22.409Z,8.70
2019-05-07T00:40:55.829Z,9.48
2019-05-07T00:43:29.469Z,8.30
2019-05-07T00:46:02.787Z,8.85
2019-05-07T00:48:34.844Z,9.18
2019-05-07T00:51:08.928Z,9.25
2019-05-07T00:53:42.397Z,10.55
2019-05-07T00:56:15.040Z,10.95
2019-05-07T00:58:52.710Z,13.48
2019-05-07T01:01:26.947Z,10.03
2019-05-07T01:04:02.455Z,10.50
2019-05-07T01:06:39.648Z,10.63
2019-05-07T01:09:12.309Z,9.78
2019-05-07T01:11:45.323Z,11.00
2019-05-07T01:14:18.667Z,11.05
2019-05-07T01:16:52.961Z,9.75
2019-05-07T01:19:28.050Z,9.93
2019-05-07T01:22:03.024Z,11.33
2019-05-07T01:24:33.557Z,11.28
2019-05-07T01:27:08.860Z,11.22
2019-05-07T01:29:46.212Z,9.60
2019-05-07T01:32:22.092Z,10.15
2019-05-07T01:34:54.565Z,9.93
2019-05-07T01:37:26.710Z,10.35
2019-05-07T01:40:00.010Z,10.28
2019-05-07T01:42:36.744Z,10.55
2019-05-07T01:45:12.928Z,10.48
2019-05-07T01:47:45.823Z,10.53
2019-05-07T01:50:18.534Z,11.43
2019-05-07T01:52:52.267Z,9.10
2019-05-07T01:55:26.535Z,10.35
2019-05-07T01:58:04.548Z,11.65
2019-05-07T02:00:35.507Z,10.08
2019-05-07T02:03:09.304Z,12.05
2019-05-07T02:05:42.592Z,10.72
2019-05-07T02:08:16.888Z,12.28
2019-05-07T02:10:52.309Z,11.88
2019-05-07T02:13:24.854Z,12.82
2019-05-07T02:16:00.821Z,12.20
2019-05-07T02:18:32.567Z,12.35
2019-05-07T02:21:05.569Z,12.30
2019-05-07T02:23:42.566Z,13.22
2019-05-07T02:26:14.174Z,13.05
2019-05-07T02:28:46.479Z,12.63
2019-05-07T02:31:23.217Z,13.00
2019-05-07T02:33:55.290Z,12.80
2019-05-07T02:36:27.487Z,13.13
2019-05-07T02:39:03.634Z,12.45
2019-05-07T02:41:36.219Z,12.80
2019-05-07T02:44:09.934Z,14.28
2019-05-07T02:46:43.760Z,14.10
2019-05-07T02:49:17.110Z,13.53
2019-05-07T02:51:53.130Z,13.78
2019-05-07T02:54:25.463Z,13.30
2019-05-07T02:56:58.478Z,13.13
2019-05-07T02:59:33.648Z,13.05
2019-05-07T03:02:05.251Z,13.08
2019-05-07T03:04:57.916Z,14.45
2019-05-07T03:07:33.585Z,14.53
2019-05-07T03:10:05.816Z,14.70
2019-05-07T03:12:42.742Z,13.22
2019-05-07T03:15:15.516Z,14.00
2019-05-07T03:17:55.147Z,14.25
2019-05-07T03:20:23.421Z,15.13
2019-05-07T03:22:56.954Z,14.53
2019-05-07T03:25:33.542Z,14.40
2019-05-07T03:28:04.576Z,14.20
2019-05-07T03:30:57.390Z,13.22
2019-05-07T03:33:36.148Z,15.18
2019-05-07T03:36:08.032Z,14.63
2019-05-07T03:38:40.483Z,13.62
2019-05-07T03:41:16.032Z,16.27
2019-05-07T03:43:48.147Z,13.88
2019-05-07T03:46:23.512Z,13.38
2019-05-07T03:48:54.823Z,13.80
2019-05-07T03:51:26.871Z,13.05
2019-05-07T03:53:59.034Z,12.53
2019-05-07T03:56:33.021Z,14.45
2019-05-07T03:59:05.293Z,13.60
2019-05-07T04:01:56.563Z,12.95
2019-05-07T04:04:28.820Z,13.25
2019-05-07T04:07:03.364Z,13.25
2019-05-07T04:09:35.088Z,13.85
2019-05-07T04:12:07.416Z,13.03
2019-05-07T04:14:43.262Z,13.10
2019-05-07T04:17:22.312Z,12.88
2019-05-07T04:19:48.777Z,12.80
2019-05-07T04:22:26.439Z,12.80
2019-05-07T04:25:04.454Z,12.90
2019-05-07T04:27:37.051Z,12.37
2019-05-07T04:30:12.852Z,12.85
2019-05-07T04:32:47.131Z,12.80
2019-05-07T04:35:43.091Z,12.03
2019-05-07T04:38:14.018Z,11.53
2019-05-07T04:40:46.753Z,16.42
2019-05-07T04:43:18.875Z,16.30
2019-05-07T04:45:53.713Z,12.45
2019-05-07T04:48:24.980Z,12.18
2019-05-07T04:50:58.581Z,11.03
2019-05-07T04:53:32.815Z,11.68
2019-05-07T04:56:04.463Z,11.85
2019-05-07T04:58:36.670Z,12.00
2019-05-07T05:04:20.165Z,12.95
2019-05-07T05:06:33.978Z,12.28
2019-05-07T05:09:07.370Z,34.43
2019-05-07T05:11:39.481Z,12.98
2019-05-07T05:14:13.666Z,14.43
2019-05-07T05:16:47.064Z,11.83
2019-05-07T05:19:19.938Z,11.97
2019-05-07T05:21:53.281Z,10.63
2019-05-07T05:24:28.196Z,11.18
2019-05-07T05:27:02.441Z,11.05
2019-05-07T05:29:35.833Z,11.90
2019-05-07T05:32:07.901Z,12.33
2019-05-07T05:34:39.901Z,9.98
2019-05-07T05:37:12.151Z,10.75
2019-05-07T05:40:02.492Z,12.05
2019-05-07T05:42:42.894Z,12.03
2019-05-07T05:45:18.568Z,11.33
2019-05-07T05:48:03.961Z,11.00
2019-05-07T05:50:27.496Z,11.43
2019-05-07T05:53:02.700Z,9.88
2019-05-07T05:55:35.287Z,11.12
2019-05-07T05:58:08.527Z,11.88
2019-05-07T06:00:42.359Z,11.80
2019-05-07T06:03:15.892Z,11.38
2019-05-07T06:05:49.633Z,10.95
2019-05-07T06:08:24.028Z,11.05
2019-05-07T06:11:16.637Z,13.78
2019-05-07T06:13:52.646Z,13.25
2019-05-07T06:16:25.950Z,13.93
2019-05-07T06:19:01.989Z,14.40
2019-05-07T06:21:35.392Z,12.10
2019-05-07T06:24:09.421Z,10.93
2019-05-07T06:26:44.935Z,11.25
2019-05-07T06:29:20.022Z,11.70
2019-05-07T06:31:56.061Z,10.95
2019-05-07T06:34:29.145Z,10.05
2019-05-07T06:37:02.300Z,11.18
2019-05-07T06:39:36.464Z,13.05
2019-05-07T06:42:12.517Z,10.88
2019-05-07T06:44:44.143Z,11.85
2019-05-07T06:47:16.080Z,11.45
2019-05-07T06:49:48.223Z,12.63
2019-05-07T06:52:22.464Z,10.48
2019-05-07T06:55:14.266Z,11.53
2019-05-07T06:57:46.547Z,16.42
2019-05-07T07:00:19.859Z,16.27
2019-05-07T07:02:53.927Z,14.00
2019-05-07T07:05:27.541Z,11.78
2019-05-07T07:08:02.333Z,10.68
2019-05-07T07:10:37.050Z,10.30
2019-05-07T07:13:11.862Z,12.05
2019-05-07T07:15:43.092Z,10.30
2019-05-07T07:18:15.314Z,10.63
2019-05-07T07:20:48.674Z,10.00
2019-05-07T07:23:22.698Z,9.53
2019-05-07T07:25:55.039Z,9.35
2019-05-07T07:28:27.246Z,7.78
2019-05-07T07:31:02.349Z,7.25
2019-05-07T07:33:35.929Z,12.30
2019-05-07T07:36:08.629Z,18.20
2019-05-07T07:38:42.074Z,16.60
2019-05-07T07:41:16.240Z,15.53
2019-05-07T07:43:48.411Z,18.42
2019-05-07T07:46:22.160Z,14.58
2019-05-07T07:49:07.197Z,14.53
2019-05-07T07:51:40.647Z,13.43
2019-05-07T07:54:02.636Z,11.75
2019-05-07T07:56:49.117Z,11.05
2019-05-07T07:59:12.482Z,9.88
2019-05-07T08:01:45.890Z,11.97
2019-05-07T08:04:18.340Z,13.30
2019-05-07T08:06:52.258Z,11.95
2019-05-07T08:09:25.904Z,12.47
2019-05-07T08:11:58.188Z,13.50
2019-05-07T08:14:33.175Z,14.35
2019-05-07T08:17:06.660Z,15.40
2019-05-07T08:19:39.387Z,13.75
2019-05-07T08:22:12.429Z,13.65
2019-05-07T08:24:49.294Z,12.10
2019-05-07T08:27:22.217Z,12.07
2019-05-07T08:29:54.822Z,10.45
2019-05-07T08:32:28.464Z,11.55
2019-05-07T08:35:02.471Z,11.68
2019-05-07T08:37:34.415Z,11.83
2019-05-07T08:40:07.975Z,11.48
2019-05-07T08:42:41.877Z,12.25
2019-05-07T08:45:16.166Z,12.45
2019-05-07T08:47:49.857Z,11.78
2019-05-07T08:50:22.224Z,12.25
2019-05-07T08:52:54.521Z,12.53
2019-05-07T08:55:46.032Z,14.85
2019-05-07T08:58:19.083Z,11.00
2019-05-07T09:00:52.288Z,11.30
2019-05-07T09:03:35.434Z,12.82
2019-05-07T09:06:07.882Z,11.30
2019-05-07T09:08:40.145Z,11.95
2019-05-07T09:11:23.073Z,13.85
2019-05-07T09:13:55.430Z,12.03
2019-05-07T09:16:46.632Z,12.68
2019-05-07T09:19:25.314Z,13.20
2019-05-07T09:22:16.548Z,13.32
2019-05-07T09:24:49.055Z,13.20
2019-05-07T09:27:25.645Z,13.03
2019-05-07T09:29:59.555Z,11.68
2019-05-07T09:32:52.357Z,12.68
2019-05-07T09:35:29.651Z,13.98
2019-05-07T09:38:03.197Z,12.78
2019-05-07T09:40:35.880Z,14.10
2019-05-07T09:43:08.571Z,14.28
2019-05-07T09:45:42.045Z,12.88
2019-05-07T09:48:14.476Z,13.88
2019-05-07T09:50:56.572Z,13.30
2019-05-07T09:53:32.015Z,13.18
2019-05-07T09:56:04.002Z,13.38
2019-05-07T09:58:39.206Z,13.70
2019-05-07T10:01:12.514Z,13.98
2019-05-07T10:03:44.852Z,14.13
2019-05-07T10:06:17.069Z,12.60
2019-05-07T10:08:49.207Z,14.10
2019-05-07T10:11:23.918Z,15.15
2019-05-07T10:13:57.843Z,16.32
2019-05-07T10:16:32.005Z,17.00
2019-05-07T10:19:04.332Z,15.25
2019-05-07T10:21:42.541Z,16.20
2019-05-07T10:24:15.038Z,13.43
2019-05-07T10:26:47.161Z,14.43
2019-05-07T10:29:19.329Z,13.60
2019-05-07T10:31:52.855Z,14.05
2019-05-07T10:34:25.211Z,13.25
2019-05-07T10:36:58.960Z,15.43
2019-05-07T10:39:32.525Z,13.45
2019-05-07T10:42:04.880Z,13.20
2019-05-07T10:44:38.515Z,13.58
2019-05-07T10:49:59.274Z,13.28
2019-05-07T10:52:52.824Z,13.43
2019-05-07T10:55:25.693Z,11.30
2019-05-07T10:57:58.003Z,12.68
2019-05-07T11:00:30.518Z,13.58
2019-05-07T11:03:02.613Z,13.50
2019-05-07T11:05:34.725Z,12.28
2019-05-07T11:08:27.475Z,12.30
2019-05-07T11:10:59.744Z,12.70
2019-05-07T11:13:53.911Z,13.62
2019-05-07T11:16:26.360Z,14.05
2019-05-07T11:18:58.384Z,14.18
2019-05-07T11:21:33.246Z,13.95
2019-05-07T11:24:05.346Z,13.85
2019-05-07T11:26:37.664Z,12.75
2019-05-07T11:29:09.761Z,14.80
2019-05-07T11:31:42.496Z,15.23
2019-05-07T11:34:15.061Z,15.72
2019-05-07T11:36:47.504Z,16.60
2019-05-07T11:39:22.565Z,17.15
2019-05-07T11:41:55.628Z,16.55
2019-05-07T11:44:31.945Z,16.00
2019-05-07T11:47:04.750Z,17.92
2019-05-07T11:49:38.485Z,18.12
2019-05-07T11:52:12.309Z,17.07
2019-05-07T11:54:46.326Z,17.35
2019-05-07T11:57:18.581Z,15.78
2019-05-07T11:59:51.634Z,14.45
2019-05-07T12:02:24.995Z,15.70
2019-05-07T12:04:57.015Z,15.23
2019-05-07T12:07:32.624Z,16.17
2019-05-07T12:10:05.121Z,17.07
2019-05-07T12:12:38.688Z,15.60
2019-05-07T12:15:12.465Z,16.52
2019-05-07T12:17:44.603Z,15.43
2019-05-07T12:20:18.595Z,19.90
2019-05-07T12:22:52.122Z,15.65
2019-05-07T12:25:25.861Z,14.03
2019-05-07T12:27:58.207Z,14.43
2019-05-07T12:30:32.677Z,14.23
2019-05-07T12:33:06.155Z,12.93
2019-05-07T12:35:41.916Z,12.63
2019-05-07T12:38:14.797Z,12.40
2019-05-07T12:40:48.855Z,14.87
2019-05-07T12:43:20.932Z,13.65
2019-05-07T12:45:52.972Z,13.18
2019-05-07T12:48:25.550Z,13.35
2019-05-07T12:50:57.564Z,13.90
2019-05-07T12:53:32.207Z,15.08
2019-05-07T12:56:06.292Z,14.38
2019-05-07T12:58:38.348Z,16.50
2019-05-07T13:01:12.108Z,15.75
2019-05-07T13:03:45.608Z,15.83
2019-05-07T13:06:18.118Z,16.37
2019-05-07T13:08:52.079Z,14.78
2019-05-07T13:11:24.301Z,15.20
2019-05-07T13:13:56.570Z,15.32
2019-05-07T13:16:32.254Z,15.55
2019-05-07T13:19:04.915Z,14.43
2019-05-07T13:21:49.069Z,14.78
2019-05-07T13:24:14.911Z,13.65
2019-05-07T13:26:47.261Z,14.43
2019-05-07T13:29:19.260Z,15.35
2019-05-07T13:31:54.396Z,14.60
2019-05-07T13:34:27.185Z,13.85
2019-05-07T13:37:10.016Z,12.68
2019-05-07T13:39:44.448Z,14.75
2019-05-07T13:42:17.954Z,15.15
2019-05-07T13:44:52.123Z,14.83
2019-05-07T13:47:26.278Z,15.75
2019-05-07T13:49:58.923Z,14.00
2019-05-07T13:52:32.947Z,15.28
2019-05-07T13:55:06.768Z,15.18
2019-05-07T13:57:39.033Z,15.32
2019-05-07T14:00:17.439Z,16.57
2019-05-07T14:02:49.675Z,16.85
2019-05-07T14:05:21.844Z,15.90
2019-05-07T14:07:54.100Z,14.63
2019-05-07T14:10:26.163Z,15.70
2019-05-07T14:13:11.052Z,15.15
2019-05-07T14:15:37.316Z,14.73
2019-05-07T14:18:11.572Z,13.78
2019-05-07T14:20:44.584Z,14.40
2019-05-07T14:23:17.835Z,13.93
2019-05-07T14:25:49.623Z,15.35
2019-05-07T14:28:42.265Z,14.65
2019-05-07T14:31:14.648Z,14.20
2019-05-07T14:33:46.379Z,14.75
2019-05-07T14:36:19.949Z,14.63
2019-05-07T14:38:53.770Z,14.15
2019-05-07T14:41:26.475Z,14.63
2019-05-07T14:44:00.309Z,15.20
2019-05-07T14:46:44.390Z,14.43
2019-05-07T14:49:06.779Z,15.72
2019-05-07T14:51:38.844Z,15.28
2019-05-07T14:54:12.320Z,17.20
2019-05-07T14:56:44.603Z,17.07
2019-05-07T14:59:17.347Z,16.32
2019-05-07T15:01:52.094Z,15.93
2019-05-07T15:04:23.627Z,16.02
2019-05-07T15:06:55.861Z,16.90
2019-05-07T15:09:28.356Z,16.20
2019-05-07T15:12:02.210Z,16.70
2019-05-07T15:14:34.975Z,16.40
2019-05-07T15:17:08.494Z,16.50
2019-05-07T15:19:42.741Z,17.23
2019-05-07T15:22:16.964Z,17.65
2019-05-07T15:24:49.819Z,17.15
2019-05-07T15:27:22.929Z,18.17
2019-05-07T15:29:55.638Z,16.57
2019-05-07T15:32:28.542Z,17.75
2019-05-07T15:35:02.239Z,17.10
2019-05-07T15:37:34.692Z,18.40
2019-05-07T15:40:09.306Z,18.82
2019-05-07T15:42:42.170Z,17.20
2019-05-07T15:45:14.833Z,17.50
2019-05-07T15:47:48.069Z,20.12
2019-05-07T15:50:20.331Z,20.25
2019-05-07T15:52:58.433Z,20.00
2019-05-07T15:55:28.070Z,18.37
2019-05-07T15:58:02.743Z,18.92
2019-05-07T16:00:36.421Z,17.90
2019-05-07T16:03:08.404Z,18.15
2019-05-07T16:05:42.348Z,19.48
2019-05-07T16:08:15.762Z,18.95
2019-05-07T16:10:48.078Z,19.12
2019-05-07T16:13:22.468Z,20.40
2019-05-07T16:15:54.430Z,19.20
2019-05-07T16:18:26.232Z,19.57
2019-05-07T16:20:58.601Z,19.23
2019-05-07T16:23:32.664Z,19.80
2019-05-07T16:26:05.220Z,19.10
2019-05-07T16:28:58.117Z,18.67
2019-05-07T16:31:30.140Z,18.77
2019-05-07T16:34:02.835Z,19.05
2019-05-07T16:36:35.142Z,18.95
2019-05-07T16:39:09.410Z,18.73
2019-05-07T16:41:42.272Z,18.42
2019-05-07T16:44:14.896Z,20.20
2019-05-07T16:46:47.067Z,19.25
2019-05-07T16:49:19.259Z,21.10
2019-05-07T16:51:52.423Z,20.05
2019-05-07T16:54:25.338Z,20.00
2019-05-07T16:56:58.622Z,19.75
2019-05-07T16:59:32.347Z,19.75
2019-05-07T17:02:05.799Z,20.97
2019-05-07T17:04:38.064Z,20.48
2019-05-07T17:07:13.329Z,21.35
2019-05-07T17:09:45.300Z,20.60
2019-05-07T17:12:19.043Z,21.23
2019-05-07T17:14:51.809Z,20.92
2019-05-07T17:17:23.864Z,21.00
2019-05-07T17:19:55.896Z,21.10
2019-05-07T17:22:28.143Z,21.90
2019-05-07T17:25:03.142Z,22.35
2019-05-07T17:27:35.346Z,22.10
2019-05-07T17:30:11.809Z,21.57
2019-05-07T17:32:43.932Z,22.02
2019-05-07T17:35:19.360Z,22.35
2019-05-07T17:38:05.908Z,22.55
2019-05-07T17:40:25.674Z,22.15
2019-05-07T17:42:58.270Z,22.95
2019-05-07T17:45:32.779Z,22.65
2019-05-07T17:48:04.397Z,23.05
2019-05-07T17:50:36.378Z,23.55
2019-05-07T17:53:08.132Z,25.00
2019-05-07T17:55:42.312Z,23.75
2019-05-07T17:58:14.568Z,24.87
2019-05-07T18:00:49.176Z,24.02
2019-05-07T18:03:22.460Z,24.50
2019-05-07T18:05:54.442Z,24.25
2019-05-07T18:08:28.247Z,23.52
2019-05-07T18:11:02.348Z,24.90
2019-05-07T18:13:34.953Z,24.37
2019-05-07T18:16:12.118Z,24.60
2019-05-07T18:18:46.576Z,24.30
2019-05-07T18:21:18.488Z,25.92
2019-05-07T18:23:51.785Z,24.75
2019-05-07T18:26:30.275Z,24.65
2019-05-07T18:28:57.654Z,24.30
2019-05-07T18:31:32.580Z,24.45
2019-05-07T18:34:05.357Z,24.18
2019-05-07T18:36:38.152Z,24.10
2019-05-07T18:39:11.084Z,25.00
2019-05-07T18:41:43.459Z,23.30
2019-05-07T18:44:16.276Z,23.30
2019-05-07T18:46:49.025Z,24.30
2019-05-07T18:49:20.946Z,24.43
2019-05-07T18:51:53.075Z,24.70
2019-05-07T18:54:30.976Z,22.52
2019-05-07T18:56:59.055Z,23.50
2019-05-07T18:59:33.788Z,23.57
2019-05-07T19:02:05.926Z,23.75
2019-05-07T19:04:37.845Z,26.30
2019-05-07T19:07:09.996Z,25.50
2019-05-07T19:09:42.468Z,25.97
2019-05-07T19:12:16.428Z,25.02
2019-05-07T19:14:48.715Z,25.95
2019-05-07T19:17:21.878Z,24.98
2019-05-07T19:19:54.431Z,25.52
2019-05-07T19:22:26.236Z,24.63
2019-05-07T19:25:03.001Z,26.80
2019-05-07T19:27:34.790Z,26.25
2019-05-07T19:30:12.645Z,27.17
2019-05-07T19:32:44.786Z,28.75
2019-05-07T19:35:17.323Z,28.38
2019-05-07T19:37:49.626Z,28.87
2019-05-07T19:40:24.765Z,27.05
2019-05-07T19:42:57.020Z,29.15
2019-05-07T19:45:29.332Z,28.27
2019-05-07T19:48:02.876Z,28.27
2019-05-07T19:50:35.790Z,28.38
2019-05-07T19:53:12.503Z,28.52
2019-05-07T19:55:52.675Z,29.23
2019-05-07T19:58:24.890Z,29.12
2019-05-07T20:00:57.550Z,28.77
2019-05-07T20:03:48.578Z,30.15
2019-05-07T20:06:23.326Z,30.52
2019-05-07T20:09:08.824Z,29.27
2019-05-07T20:11:34.323Z,30.40
2019-05-07T20:14:06.554Z,33.88
2019-05-07T20:16:38.950Z,37.10
2019-05-07T20:19:12.040Z,37.83
2019-05-07T20:21:45.609Z,40.88
2019-05-07T20:24:22.145Z,40.03
2019-05-07T20:26:54.519Z,36.55
2019-05-07T20:29:26.637Z,36.08
2019-05-07T20:31:58.676Z,31.02
2019-05-07T20:34:33.247Z,28.25
2019-05-07T20:37:05.390Z,28.10
2019-05-07T20:39:37.496Z,27.90
2019-05-07T20:42:09.618Z,26.97
2019-05-07T20:44:42.586Z,27.58
2019-05-07T20:47:15.185Z,26.12
2019-05-07T20:49:47.346Z,27.40
2019-05-07T20:52:19.264Z,26.60
2019-05-07T20:54:52.965Z,26.62
2019-05-07T20:57:26.465Z,27.70
2019-05-07T20:59:59.052Z,26.07
2019-05-07T21:02:44.896Z,26.10
2019-05-07T21:05:04.837Z,26.33
2019-05-07T21:07:36.878Z,25.48
2019-05-07T21:10:12.518Z,26.37
2019-05-07T21:12:44.016Z,26.90
2019-05-07T21:15:16.600Z,24.63
2019-05-07T21:17:48.734Z,26.93
2019-05-07T21:20:22.832Z,24.80
2019-05-07T21:22:54.846Z,26.07
2019-05-07T21:25:26.782Z,24.45
2019-05-07T21:27:58.992Z,26.27
2019-05-07T21:30:32.786Z,25.25
2019-05-07T21:33:04.972Z,24.72
2019-05-07T21:35:37.255Z,24.92
2019-05-07T21:38:09.372Z,25.35
2019-05-07T21:40:42.853Z,25.10
2019-05-07T21:43:15.653Z,25.48
2019-05-07T21:45:48.067Z,24.70
2019-05-07T21:48:22.304Z,23.85
2019-05-07T21:50:54.973Z,23.50
2019-05-07T21:53:28.384Z,23.40
2019-05-07T21:56:05.302Z,25.92
2019-05-07T21:58:37.519Z,23.73
2019-05-07T22:01:12.555Z,23.27
2019-05-07T22:03:47.545Z,23.40
2019-05-07T22:06:22.494Z,22.42
2019-05-07T22:08:54.982Z,22.52
2019-05-07T22:11:27.286Z,21.77
2019-05-07T22:14:01.943Z,22.80
2019-05-07T22:16:33.618Z,22.98
2019-05-07T22:19:06.546Z,20.82
2019-05-07T22:21:38.776Z,21.27
2019-05-07T22:24:14.674Z,21.57
2019-05-07T22:26:44.844Z,22.05
2019-05-07T22:29:16.989Z,22.45
2019-05-07T22:31:52.852Z,22.55
2019-05-07T22:34:25.769Z,21.82
2019-05-07T22:36:58.065Z,20.95
2019-05-07T22:39:32.574Z,20.45
2019-05-07T22:42:03.823Z,21.00
2019-05-07T22:44:36.008Z,22.27
2019-05-07T22:47:09.580Z,20.72
2019-05-07T22:49:42.004Z,20.43
2019-05-07T22:52:15.658Z,19.50
2019-05-07T22:54:48.195Z,20.08
2019-05-07T22:57:22.826Z,18.30
2019-05-07T22:59:55.643Z,18.12
2019-05-07T23:02:27.812Z,17.92
2019-05-07T23:05:02.907Z,17.92
2019-05-07T23:07:34.703Z,19.40
2019-05-07T23:10:08.759Z,18.32
2019-05-07T23:12:40.886Z,18.90
2019-05-07T23:15:16.968Z,18.15
2019-05-07T23:17:48.972Z,18.90
2019-05-07T23:20:24.109Z,19.07
2019-05-07T23:22:55.314Z,17.15
2019-05-07T23:25:27.449Z,19.75
2019-05-07T23:27:59.948Z,18.52
2019-05-07T23:30:33.069Z,18.57
2019-05-07T23:33:05.729Z,17.15
2019-05-07T23:35:38.108Z,19.48
2019-05-07T23:38:12.210Z,17.30
2019-05-07T23:40:46.035Z,16.00
2019-05-07T23:43:19.930Z,17.35
2019-05-07T23:45:52.639Z,16.23
2019-05-07T23:48:25.134Z,16.00
2019-05-07T23:50:56.960Z,16.35
2019-05-07T23:53:28.916Z,15.78
2019-05-07T23:56:02.902Z,15.43
2019-05-07T23:58:35.317Z,14.40
